Time;durP1;ratioP1;P1;durP2;ratioP2;P2;SDS_P1;SDS_P2;PMS_P1;PMS_P2;Temp;Humidity;BMP_temperature;BMP_pressure;BME280_temperature;BME280_humidity;BME280_pressure;Samples;Min_cycle;Max_cycle;Signal;HPM_P1;HPM_P2
2023/01/17 00:00:04;;;;;;;1.20;0.43;;;;;;;1.82;71.00;93533.47;5083857;28;20505;-90
2023/01/17 00:02:31;;;;;;;1.45;0.60;;;;;;;1.77;71.49;93531.00;5076505;28;20044;-89
2023/01/17 00:10:33;;;;;;;1.88;0.43;;;;;;;1.66;72.14;93527.16;5082399;28;20680;-89
2023/01/17 00:13:02;;;;;;;0.77;0.50;;;;;;;1.61;72.69;93538.09;5080565;28;20291;-92
2023/01/17 00:15:30;;;;;;;1.15;0.57;;;;;;;1.61;72.37;93535.44;5087340;28;20051;-93
2023/01/17 00:17:57;;;;;;;1.23;0.68;;;;;;;1.57;72.74;93531.84;5095655;28;20036;-91
2023/01/17 00:26:05;;;;;;;0.95;0.50;;;;;;;1.61;73.00;93538.09;5092365;28;20093;-91
2023/01/17 01:35:29;;;;;;;2.97;1.13;;;;;;;1.53;72.52;93619.44;5040090;28;20051;-81
2023/01/17 01:37:56;;;;;;;1.30;0.75;;;;;;;1.48;72.80;93619.63;5047286;28;20037;-80
2023/01/17 01:40:23;;;;;;;1.60;0.82;;;;;;;1.52;72.48;93617.88;5050278;28;20049;-80
2023/01/17 01:42:52;;;;;;;1.63;0.60;;;;;;;1.47;72.99;93607.34;5057198;28;20497;-80
2023/01/17 01:45:22;;;;;;;1.15;0.88;;;;;;;1.43;72.88;93625.19;5048310;28;20056;-81
2023/01/17 01:47:50;;;;;;;1.15;0.50;;;;;;;1.39;73.08;93617.00;5047472;28;20045;-81
2023/01/17 01:50:19;;;;;;;1.20;0.80;;;;;;;1.38;73.13;93622.72;5045020;28;20113;-81
2023/01/17 01:52:52;;;;;;;1.05;0.60;;;;;;;1.39;72.63;93617.00;5048796;28;20049;-82
2023/01/17 01:55:22;;;;;;;2.20;0.70;;;;;;;1.48;71.90;93625.00;5051317;28;20772;-82
2023/01/17 01:57:53;;;;;;;2.88;0.65;;;;;;;1.45;72.04;93614.91;5047662;28;20045;-82
2023/01/17 02:00:24;;;;;;;1.80;0.98;;;;;;;1.46;71.57;93616.47;5046232;28;20049;-81
2023/01/17 02:02:54;;;;;;;2.00;1.00;;;;;;;1.40;72.23;93617.78;5057181;28;20267;-81
2023/01/17 02:05:23;;;;;;;1.35;0.82;;;;;;;1.39;71.85;93624.28;5042577;28;20046;-79
2023/01/17 02:07:54;;;;;;;0.93;0.55;;;;;;;1.41;71.10;93625.53;5043992;28;20038;-81
2023/01/17 02:10:21;;;;;;;1.23;0.80;;;;;;;1.35;71.40;93615.31;5045857;28;20044;-83
2023/01/17 02:12:49;;;;;;;2.00;0.75;;;;;;;1.30;71.44;93617.09;5044053;28;20046;-82
2023/01/17 02:15:17;;;;;;;1.08;0.57;;;;;;;1.28;71.27;93627.34;5044237;28;20069;-81
2023/01/17 02:17:53;;;;;;;1.23;1.02;;;;;;;1.23;71.39;93624.06;5042753;28;20045;-81
2023/01/17 02:20:56;;;;;;;3.35;0.70;;;;;;;1.20;71.38;93625.50;5040150;28;20049;-81
2023/01/17 02:24:10;;;;;;;0.80;0.60;;;;;;;1.13;71.55;93627.91;5051873;22;20053;-82
2023/01/17 02:26:51;;;;;;;2.13;0.80;;;;;;;1.12;70.93;93620.97;5039717;28;20046;-82
2023/01/17 02:30:03;;;;;;;1.42;1.08;;;;;;;1.12;71.20;93622.88;5041787;28;20049;-79
2023/01/17 02:32:52;;;;;;;1.92;0.70;;;;;;;1.05;71.28;93623.41;5042869;28;20520;-81
2023/01/17 02:35:28;;;;;;;2.90;0.70;;;;;;;1.02;71.18;93637.44;5025393;28;20052;-82
2023/01/17 02:38:00;;;;;;;1.45;0.82;;;;;;;0.98;71.52;93631.16;5044502;28;20048;-81
2023/01/17 02:40:34;;;;;;;1.02;0.70;;;;;;;0.95;71.65;93629.13;5037690;28;20053;-81
2023/01/17 02:43:06;;;;;;;1.15;0.65;;;;;;;0.95;71.74;93626.44;5046032;28;20049;-80
2023/01/17 02:45:32;;;;;;;0.60;0.55;;;;;;;0.83;72.29;93629.81;5043383;28;20056;-81
2023/01/17 02:48:00;;;;;;;4.63;0.60;;;;;;;0.81;72.40;93628.56;5042757;28;20041;-80
2023/01/17 02:50:39;;;;;;;1.27;0.68;;;;;;;0.78;72.44;93630.78;5042365;28;20081;-80
2023/01/17 02:53:20;;;;;;;2.45;0.90;;;;;;;0.80;72.35;93627.78;5041346;28;20049;-81
2023/01/17 02:55:56;;;;;;;0.82;0.63;;;;;;;0.73;72.75;93633.66;5042684;28;20060;-80
2023/01/17 02:58:34;;;;;;;1.90;0.68;;;;;;;0.77;72.77;93631.88;5041504;28;20072;-80
2023/01/17 03:01:12;;;;;;;3.35;0.98;;;;;;;0.79;72.62;93631.56;5042405;28;20082;-81
2023/01/17 03:03:49;;;;;;;1.65;0.70;;;;;;;0.80;72.64;93637.72;5037439;28;20042;-80
2023/01/17 03:06:20;;;;;;;2.30;0.50;;;;;;;0.76;72.78;93624.94;5047695;28;20049;-81
2023/01/17 03:08:50;;;;;;;2.55;0.82;;;;;;;0.79;72.82;93628.91;5042735;28;20052;-80
2023/01/17 03:11:17;;;;;;;3.33;1.10;;;;;;;0.74;73.30;93629.84;5041198;28;20049;-82
2023/01/17 03:13:43;;;;;;;2.55;0.95;;;;;;;0.74;73.21;93629.06;5041540;28;20041;-81
2023/01/17 03:16:14;;;;;;;4.80;1.00;;;;;;;0.77;73.17;93629.19;5040157;28;20486;-80
2023/01/17 03:18:42;;;;;;;1.27;0.65;;;;;;;0.84;73.17;93627.94;5014941;22;20045;-79
2023/01/17 03:21:09;;;;;;;1.38;0.85;;;;;;;0.86;73.38;93631.06;5024966;28;20054;-81
2023/01/17 03:23:36;;;;;;;3.40;0.90;;;;;;;0.84;73.71;93630.59;5003200;28;20437;-80
2023/01/17 03:26:02;;;;;;;1.88;0.88;;;;;;;0.88;73.86;93634.97;5023361;28;20037;-79
2023/01/17 03:28:29;;;;;;;1.77;1.02;;;;;;;0.83;73.74;93631.69;5011946;28;20517;-78
2023/01/17 03:30:55;;;;;;;1.95;0.93;;;;;;;0.76;74.51;93643.69;5019074;28;20052;-80
2023/01/17 03:33:22;;;;;;;2.10;0.80;;;;;;;0.75;74.80;93642.13;5013912;28;20073;-79
2023/01/17 03:35:50;;;;;;;4.70;0.95;;;;;;;0.73;74.90;93644.38;5014773;28;20046;-80
2023/01/17 03:38:18;;;;;;;2.33;1.00;;;;;;;0.72;75.28;93642.78;5005887;28;20053;-80
2023/01/17 03:40:44;;;;;;;1.30;0.82;;;;;;;0.61;75.79;93641.56;5019049;28;20053;-80
2023/01/17 03:43:11;;;;;;;2.33;1.25;;;;;;;0.59;75.79;93649.13;5021091;28;20056;-81
2023/01/17 03:45:38;;;;;;;3.08;0.93;;;;;;;0.58;76.10;93655.59;5016860;28;20052;-79
2023/01/17 03:48:05;;;;;;;1.05;0.52;;;;;;;0.58;75.91;93646.78;5013917;28;20038;-79
2023/01/17 03:50:33;;;;;;;2.58;0.98;;;;;;;0.52;76.55;93654.19;5010440;28;20046;-79
2023/01/17 03:53:01;;;;;;;2.40;1.10;;;;;;;0.51;76.28;93647.28;5017589;28;20054;-79
2023/01/17 03:55:27;;;;;;;3.42;0.93;;;;;;;0.49;76.17;93647.59;5002796;28;20046;-80
2023/01/17 03:57:54;;;;;;;26.90;6.63;;;;;;;0.55;75.96;93648.19;5028800;23;20046;-80
2023/01/17 04:00:21;;;;;;;5.75;1.70;;;;;;;0.56;75.57;93652.44;5044386;28;20075;-80
2023/01/17 04:02:48;;;;;;;1.98;0.80;;;;;;;0.57;75.30;93648.66;5061232;28;20047;-80
2023/01/17 04:05:15;;;;;;;3.25;1.15;;;;;;;0.58;75.62;93652.94;5063987;28;20404;-80
2023/01/17 04:07:42;;;;;;;2.03;0.73;;;;;;;0.52;75.93;93655.00;5063245;28;20052;-79
2023/01/17 04:10:11;;;;;;;4.03;1.63;;;;;;;0.52;76.13;93648.84;5041618;28;20045;-80
2023/01/17 04:12:38;;;;;;;2.30;0.80;;;;;;;0.50;76.39;93656.41;5059791;28;20109;-80
2023/01/17 04:15:05;;;;;;;2.88;0.98;;;;;;;0.46;76.84;93652.78;5059555;28;20037;-80
2023/01/17 04:17:32;;;;;;;2.05;1.10;;;;;;;0.45;77.07;93654.69;5061394;28;20403;-80
2023/01/17 04:19:59;;;;;;;1.20;0.80;;;;;;;0.40;77.08;93656.75;5069719;28;20451;-80
2023/01/17 04:22:25;;;;;;;2.42;1.08;;;;;;;0.35;77.70;93654.25;5062422;28;20053;-81
2023/01/17 04:24:52;;;;;;;3.03;1.00;;;;;;;0.31;77.66;93659.44;5066090;28;20052;-80
2023/01/17 04:27:22;;;;;;;12.82;2.13;;;;;;;0.33;77.56;93657.25;5066693;28;20115;-80
2023/01/17 04:29:48;;;;;;;4.22;0.90;;;;;;;0.30;77.64;93649.84;5066298;28;20037;-80
2023/01/17 04:32:15;;;;;;;12.23;2.03;;;;;;;0.33;77.51;93651.13;5065255;28;20072;-79
2023/01/17 04:34:42;;;;;;;4.18;1.25;;;;;;;0.28;77.73;93648.63;5063806;28;20720;-80
2023/01/17 04:37:09;;;;;;;7.82;1.63;;;;;;;0.31;77.75;93643.38;5028637;28;20071;-79
2023/01/17 04:39:35;;;;;;;6.38;1.55;;;;;;;0.33;77.42;93651.13;5047627;28;20045;-79
2023/01/17 04:42:02;;;;;;;5.22;1.45;;;;;;;0.29;77.20;93650.19;5065667;28;20051;-79
2023/01/17 04:44:30;;;;;;;4.57;1.25;;;;;;;0.21;77.72;93644.53;5069642;28;20045;-79
2023/01/17 04:46:57;;;;;;;4.05;1.02;;;;;;;0.24;77.20;93643.88;5052187;28;20045;-80
2023/01/17 04:49:25;;;;;;;7.35;1.70;;;;;;;0.25;77.24;93648.13;5063875;28;20496;-80
2023/01/17 04:51:52;;;;;;;4.45;1.05;;;;;;;0.30;76.75;93657.88;5066321;28;20061;-80
2023/01/17 04:54:19;;;;;;;4.18;0.95;;;;;;;0.40;76.65;93651.41;5047103;28;20049;-80
2023/01/17 04:56:45;;;;;;;7.13;1.85;;;;;;;0.44;76.37;93655.03;5063174;28;20060;-80
2023/01/17 04:59:12;;;;;;;5.80;1.52;;;;;;;0.49;75.82;93649.50;5064874;28;20047;-80
2023/01/17 05:01:40;;;;;;;3.03;0.80;;;;;;;0.53;75.51;93655.78;5064777;28;20045;-80
2023/01/17 05:04:07;;;;;;;5.68;1.33;;;;;;;0.52;75.81;93654.19;5046731;28;20094;-80
2023/01/17 05:06:33;;;;;;;3.70;1.23;;;;;;;0.50;76.08;93648.38;5064240;28;20437;-80
2023/01/17 05:09:01;;;;;;;2.47;0.85;;;;;;;0.51;76.25;93652.63;5060559;28;20045;-81
2023/01/17 05:11:28;;;;;;;5.20;1.33;;;;;;;0.55;76.05;93647.41;5065591;28;20098;-80
2023/01/17 05:13:54;;;;;;;5.25;1.17;;;;;;;0.49;76.42;93649.50;5067442;28;20429;-80
2023/01/17 05:16:21;;;;;;;3.90;0.98;;;;;;;0.48;76.79;93664.00;5060542;28;20041;-79
2023/01/17 05:18:52;;;;;;;9.95;1.95;;;;;;;0.48;76.67;93661.31;5067597;28;20047;-80
2023/01/17 05:21:18;;;;;;;2.40;0.80;;;;;;;0.46;76.81;93666.19;5068486;28;20048;-79
2023/01/17 05:23:45;;;;;;;7.22;1.20;;;;;;;0.51;76.61;93663.34;5066014;28;20045;-80
2023/01/17 05:26:12;;;;;;;5.97;1.40;;;;;;;0.50;76.83;93664.44;5063203;28;20055;-79
2023/01/17 05:28:38;;;;;;;5.65;1.30;;;;;;;0.42;77.15;93663.38;5063677;28;20045;-80
2023/01/17 05:31:05;;;;;;;4.57;1.00;;;;;;;0.31;78.17;93670.16;5064940;28;20033;-80
2023/01/17 05:33:32;;;;;;;6.88;1.35;;;;;;;0.35;78.00;93670.31;5064102;28;20041;-80
2023/01/17 05:36:00;;;;;;;4.38;1.17;;;;;;;0.35;78.19;93670.31;5065659;28;20045;-78
2023/01/17 05:38:28;;;;;;;6.68;1.50;;;;;;;0.30;78.74;93679.28;5064676;28;20044;-80
2023/01/17 05:40:54;;;;;;;7.20;1.65;;;;;;;0.29;78.99;93676.94;5061890;28;20083;-79
2023/01/17 05:43:21;;;;;;;6.38;1.38;;;;;;;0.25;79.02;93680.25;5061824;28;20037;-80
2023/01/17 05:45:49;;;;;;;4.72;1.30;;;;;;;0.31;79.03;93680.06;5045269;28;20109;-80
2023/01/17 05:48:15;;;;;;;6.07;1.67;;;;;;;0.34;79.07;93684.81;5043721;28;20075;-81
2023/01/17 05:50:42;;;;;;;3.70;1.00;;;;;;;0.24;79.33;93689.38;5062176;28;20056;-80
2023/01/17 05:53:12;;;;;;;3.85;1.20;;;;;;;0.19;79.66;93694.91;5062560;28;20056;-79
2023/01/17 05:55:39;;;;;;;3.33;1.05;;;;;;;0.18;79.81;93704.03;5068721;28;20045;-80
2023/01/17 05:58:07;;;;;;;3.50;1.13;;;;;;;0.15;80.06;93710.00;5062351;28;20048;-80
2023/01/17 06:00:34;;;;;;;6.55;1.50;;;;;;;0.16;80.08;93711.59;5061984;28;20072;-80
2023/01/17 06:03:01;;;;;;;5.82;1.30;;;;;;;0.18;80.21;93720.09;5061136;28;20037;-80
2023/01/17 06:05:29;;;;;;;3.20;1.02;;;;;;;0.08;80.99;93723.09;5065236;28;20040;-80
2023/01/17 06:07:56;;;;;;;5.68;1.40;;;;;;;0.14;80.76;93724.50;5063577;28;20055;-80
2023/01/17 06:10:25;;;;;;;4.78;1.30;;;;;;;0.16;80.50;93716.97;5066274;28;20055;-80
2023/01/17 06:13:00;;;;;;;5.75;1.55;;;;;;;0.18;80.80;93722.78;5065694;28;20041;-78
2023/01/17 06:15:27;;;;;;;2.90;0.98;;;;;;;0.16;80.52;93716.97;5024605;28;20044;-80
2023/01/17 06:17:53;;;;;;;6.30;1.80;;;;;;;0.14;80.82;93718.38;5057150;28;20056;-80
2023/01/17 06:20:20;;;;;;;5.47;1.50;;;;;;;0.06;81.37;93711.94;5061710;28;20041;-79
2023/01/17 06:22:47;;;;;;;2.88;0.98;;;;;;;0.07;81.55;93708.16;5062238;28;20049;-80
2023/01/17 06:25:13;;;;;;;5.28;1.60;;;;;;;0.08;81.58;93714.28;5061225;28;20045;-80
2023/01/17 06:27:41;;;;;;;3.60;1.30;;;;;;;-0.03;81.95;93705.78;5045475;28;20041;-80
2023/01/17 06:30:09;;;;;;;5.38;1.58;;;;;;;0.03;82.15;93696.50;5062563;28;20072;-80
2023/01/17 06:32:36;;;;;;;4.15;1.17;;;;;;;0.04;81.90;93692.72;5061881;28;20045;-79
2023/01/17 06:35:03;;;;;;;5.10;1.55;;;;;;;0.07;81.89;93697.44;5063036;28;20039;-77
2023/01/17 06:37:29;;;;;;;8.40;1.73;;;;;;;-0.12;82.43;93696.97;5053743;28;20041;-80
2023/01/17 06:39:56;;;;;;;4.85;1.45;;;;;;;0.01;82.13;93704.06;5063545;28;20056;-80
2023/01/17 06:42:23;;;;;;;5.38;1.50;;;;;;;-0.05;82.52;93699.97;5062170;28;20064;-80
2023/01/17 06:44:50;;;;;;;5.88;1.33;;;;;;;-0.05;82.64;93700.75;5061137;28;20045;-80
2023/01/17 06:47:17;;;;;;;6.90;1.58;;;;;;;-0.02;82.59;93699.34;5061857;28;20049;-81
2023/01/17 06:49:44;;;;;;;4.40;1.42;;;;;;;0.02;82.22;93694.94;5062099;28;20037;-81
2023/01/17 06:52:10;;;;;;;6.50;1.55;;;;;;;0.02;81.92;93689.59;5060800;28;20048;-80
2023/01/17 06:54:37;;;;;;;4.55;1.42;;;;;;;0.06;81.85;93692.41;5058256;28;20036;-81
2023/01/17 06:57:03;;;;;;;5.80;1.77;;;;;;;-0.01;81.89;93698.22;5058039;28;20440;-80
2023/01/17 06:59:30;;;;;;;3.15;1.10;;;;;;;-0.06;82.40;93682.34;5058419;28;20048;-80
2023/01/17 07:01:58;;;;;;;7.20;1.27;;;;;;;-0.02;82.25;93683.28;5060788;28;20045;-80
2023/01/17 07:04:26;;;;;;;7.60;1.63;;;;;;;-0.01;82.11;93684.84;5062757;28;20040;-79
2023/01/17 07:06:55;;;;;;;7.07;1.60;;;;;;;-0.05;81.96;93679.38;5062468;28;20466;-79
2023/01/17 07:09:21;;;;;;;8.95;1.83;;;;;;;-0.09;82.15;93689.13;5060548;28;20045;-79
2023/01/17 07:11:50;;;;;;;3.72;1.27;;;;;;;-0.11;82.17;93690.53;5069012;28;20489;-80
2023/01/17 07:14:17;;;;;;;6.95;2.10;;;;;;;-0.12;82.09;93696.97;5053871;28;20102;-78
2023/01/17 07:16:44;;;;;;;9.05;2.60;;;;;;;-0.12;82.40;93694.31;5051279;28;20049;-78
2023/01/17 07:19:12;;;;;;;8.70;2.88;;;;;;;-0.16;82.58;93688.78;5050453;28;20098;-78
2023/01/17 07:21:40;;;;;;;5.30;1.80;;;;;;;-0.19;82.71;93694.00;5052381;28;20048;-80
2023/01/17 07:24:07;;;;;;;9.57;2.47;;;;;;;-0.27;82.95;93696.34;5053014;28;20048;-79
2023/01/17 07:26:36;;;;;;;8.65;2.47;;;;;;;-0.39;83.63;93696.19;5052921;28;20045;-80
2023/01/17 07:29:03;;;;;;;8.10;2.72;;;;;;;-0.41;83.73;93698.41;5052931;28;20048;-79
2023/01/17 07:31:29;;;;;;;7.93;2.25;;;;;;;-0.37;83.75;93693.97;5052528;28;20041;-79
2023/01/17 07:33:56;;;;;;;5.75;1.90;;;;;;;-0.41;83.75;93693.06;5053178;28;20049;-79
2023/01/17 07:36:24;;;;;;;5.88;2.05;;;;;;;-0.36;83.98;93690.22;5052118;28;20060;-80
2023/01/17 07:38:50;;;;;;;8.60;2.45;;;;;;;-0.32;84.19;93691.16;5053599;28;20048;-79
2023/01/17 07:41:17;;;;;;;10.95;3.30;;;;;;;-0.32;84.41;93685.81;5052446;28;20045;-80
2023/01/17 07:43:44;;;;;;;7.85;2.55;;;;;;;-0.21;84.57;93693.50;5062653;28;20580;-80
2023/01/17 07:46:10;;;;;;;8.90;2.78;;;;;;;-0.10;84.63;93697.47;5052506;28;20048;-78
2023/01/17 07:48:37;;;;;;;7.88;3.08;;;;;;;0.02;84.60;93696.81;5053243;28;20045;-79
2023/01/17 07:51:03;;;;;;;9.05;2.67;;;;;;;0.09;84.39;93691.78;5053252;28;20048;-79
2023/01/17 07:53:32;;;;;;;6.30;2.10;;;;;;;0.14;84.15;93692.38;5053810;28;20037;-80
2023/01/17 07:56:01;;;;;;;6.95;2.33;;;;;;;0.22;83.78;93688.94;5053966;28;20152;-80
2023/01/17 07:58:27;;;;;;;6.68;2.40;;;;;;;0.32;83.78;93692.38;5056051;28;20091;-78
2023/01/17 08:00:54;;;;;;;9.10;2.92;;;;;;;0.45;83.25;93686.81;5058598;28;20051;-79
2023/01/17 08:03:21;;;;;;;7.10;2.72;;;;;;;0.65;82.20;93684.56;5057313;28;20515;-80
2023/01/17 08:05:55;;;;;;;8.40;2.47;;;;;;;1.39;79.47;93680.56;5057950;28;20056;-80
2023/01/17 08:08:21;;;;;;;5.85;2.25;;;;;;;2.19;74.58;93678.53;5057848;28;20040;-79
2023/01/17 08:10:50;;;;;;;7.57;1.88;;;;;;;2.91;71.65;93683.63;5059585;28;20041;-79
2023/01/17 08:13:16;;;;;;;7.22;2.00;;;;;;;3.42;66.84;93682.19;5059454;28;20048;-79
2023/01/17 08:15:43;;;;;;;6.15;1.67;;;;;;;4.06;64.58;93680.59;5061280;28;20041;-79
2023/01/17 08:18:10;;;;;;;6.13;1.98;;;;;;;4.95;61.84;93667.56;5060778;28;20048;-78
2023/01/17 08:20:36;;;;;;;5.82;1.95;;;;;;;5.53;57.92;93658.91;5062905;28;20048;-79
2023/01/17 08:23:02;;;;;;;5.70;1.85;;;;;;;6.08;56.60;93650.84;5063826;28;20045;-78
2023/01/17 08:25:29;;;;;;;4.53;1.52;;;;;;;6.56;55.66;93643.28;5064627;28;20045;-79
2023/01/17 08:27:57;;;;;;;4.45;1.80;;;;;;;6.92;54.61;93647.41;5064710;28;20045;-79
2023/01/17 08:30:25;;;;;;;2.83;1.40;;;;;;;7.14;52.82;93648.53;5056037;28;20041;-78
2023/01/17 08:32:51;;;;;;;3.40;1.73;;;;;;;7.46;51.61;93646.34;5064709;28;20064;-77
2023/01/17 08:35:18;;;;;;;4.60;2.20;;;;;;;7.17;50.76;93650.53;5062053;28;20056;-78
2023/01/17 08:37:45;;;;;;;5.28;2.30;;;;;;;6.63;52.59;93648.81;5063098;28;20041;-78
2023/01/17 08:40:15;;;;;;;5.88;2.00;;;;;;;6.08;53.57;93631.94;5062595;28;20496;-78
2023/01/17 08:42:43;;;;;;;4.38;1.55;;;;;;;5.55;55.16;93636.97;5062091;28;20115;-79
2023/01/17 08:45:11;;;;;;;4.72;2.00;;;;;;;4.91;56.87;93631.66;5061979;28;20059;-78
2023/01/17 08:47:38;;;;;;;8.60;2.17;;;;;;;4.53;57.31;93634.13;5062183;28;20041;-78
2023/01/17 08:50:05;;;;;;;4.72;1.80;;;;;;;4.13;58.36;93635.81;5060375;28;20048;-78
2023/01/17 08:52:32;;;;;;;5.82;1.90;;;;;;;3.87;60.30;93638.94;5055137;28;20124;-79
2023/01/17 08:54:59;;;;;;;5.00;1.80;;;;;;;3.78;61.70;93632.91;5055808;28;20066;-77
2023/01/17 08:57:28;;;;;;;8.65;2.63;;;;;;;3.67;62.01;93634.50;5059540;28;20041;-78
2023/01/17 08:59:57;;;;;;;5.75;1.95;;;;;;;3.56;62.49;93641.47;5060848;28;20041;-78
2023/01/17 09:02:28;;;;;;;8.02;2.28;;;;;;;3.47;62.61;93643.50;5047036;28;20052;-78
2023/01/17 09:04:54;;;;;;;6.68;2.58;;;;;;;3.42;63.09;93649.91;5055037;28;20574;-80
2023/01/17 09:07:23;;;;;;;9.20;2.33;;;;;;;3.33;63.01;93644.63;5054564;28;20052;-79
2023/01/17 09:09:51;;;;;;;10.20;1.70;;;;;;;3.31;63.34;93644.19;5054351;28;20124;-78
2023/01/17 09:12:19;;;;;;;6.72;2.22;;;;;;;3.24;63.37;93644.00;5053592;28;20056;-78
2023/01/17 09:14:45;;;;;;;6.43;1.73;;;;;;;2.94;63.77;93650.72;5054703;28;20041;-79
2023/01/17 09:17:12;;;;;;;5.03;1.92;;;;;;;2.93;64.20;93649.16;5053125;28;20052;-78
2023/01/17 09:19:43;;;;;;;7.78;2.13;;;;;;;3.01;64.85;93657.09;5053878;28;20041;-77
2023/01/17 09:22:12;;;;;;;7.60;2.50;;;;;;;3.02;64.88;93649.81;5053048;28;20136;-79
2023/01/17 09:24:40;;;;;;;6.38;2.00;;;;;;;2.98;65.07;93647.03;5061181;28;20099;-79
2023/01/17 09:27:07;;;;;;;7.60;2.78;;;;;;;3.08;65.16;93651.16;5053296;28;20643;-78
2023/01/17 09:29:34;;;;;;;7.75;2.03;;;;;;;3.22;63.47;93648.91;5053341;28;20056;-79
2023/01/17 09:32:00;;;;;;;5.72;2.15;;;;;;;3.36;64.32;93648.56;5053553;28;20052;-79
2023/01/17 09:34:29;;;;;;;5.80;1.85;;;;;;;3.51;62.35;93657.84;5053414;28;20540;-78
2023/01/17 09:37:00;;;;;;;5.82;2.15;;;;;;;3.45;62.05;93659.22;5054186;28;20052;-79
2023/01/17 09:39:26;;;;;;;5.13;2.30;;;;;;;3.39;62.83;93662.13;5052683;28;20041;-79
2023/01/17 09:42:03;;;;;;;5.60;2.20;;;;;;;3.36;62.79;93653.94;5053220;28;20049;-78
2023/01/17 09:44:38;;;;;;;6.82;2.17;;;;;;;3.53;63.15;93655.59;5045866;28;20044;-79
2023/01/17 09:47:15;;;;;;;9.05;2.70;;;;;;;3.55;62.55;93653.34;5052728;28;20041;-79
2023/01/17 09:49:44;;;;;;;4.80;1.70;;;;;;;3.64;62.26;93645.94;5053313;28;20060;-78
2023/01/17 09:52:14;;;;;;;8.27;2.53;;;;;;;3.61;62.50;93633.97;5053287;28;20045;-78
2023/01/17 09:54:44;;;;;;;6.05;1.80;;;;;;;3.52;62.44;93640.59;5054092;28;20033;-79
2023/01/17 09:57:25;;;;;;;6.75;1.98;;;;;;;3.76;61.36;93642.41;5052922;28;20049;-81
2023/01/17 09:59:58;;;;;;;4.82;1.63;;;;;;;4.15;62.29;93627.38;5053684;28;20413;-79
2023/01/17 10:02:34;;;;;;;;;;;;;;;4.48;59.94;93623.63;5045529;28;20045;-79
2023/01/17 10:05:22;;;;;;;4.90;1.75;;;;;;;4.80;59.91;93609.03;5054457;28;19927;-79
2023/01/17 10:08:11;;;;;;;5.03;1.48;;;;;;;4.87;55.81;93595.72;5053822;28;20037;-78
2023/01/17 10:10:41;;;;;;;5.45;1.35;;;;;;;5.00;57.44;93590.22;5048740;28;20052;-79
2023/01/17 10:13:23;;;;;;;7.38;2.42;;;;;;;5.26;57.63;93576.97;5061571;28;20053;-78
2023/01/17 10:16:18;;;;;;;4.82;1.15;;;;;;;5.57;56.99;93568.00;5036325;28;20044;-79
2023/01/17 10:19:15;;;;;;;3.60;1.33;;;;;;;5.67;54.86;93558.56;5053618;28;20037;-78
2023/01/17 10:21:57;;;;;;;9.15;2.00;;;;;;;5.80;53.37;93551.91;5044553;28;20045;-79
2023/01/17 10:24:47;;;;;;;3.08;1.30;;;;;;;5.88;55.47;93548.19;5038460;28;20064;-79
2023/01/17 10:27:20;;;;;;;4.10;1.65;;;;;;;6.05;53.42;93557.00;5053438;28;20087;-78
2023/01/17 10:29:50;;;;;;;6.22;1.33;;;;;;;6.47;52.38;93547.00;5054649;28;20067;-79
2023/01/17 10:32:17;;;;;;;4.35;1.63;;;;;;;6.58;51.08;93540.97;5062273;28;20049;-79
2023/01/17 10:34:49;;;;;;;3.70;1.48;;;;;;;6.80;50.57;93526.66;5053906;28;20049;-78
2023/01/17 10:37:20;;;;;;;6.30;1.77;;;;;;;7.00;50.48;93530.84;5053532;28;20057;-78
2023/01/17 10:39:50;;;;;;;6.47;1.40;;;;;;;7.55;48.84;93533.91;5054517;28;20045;-78
2023/01/17 10:42:22;;;;;;;5.43;1.77;;;;;;;8.04;47.56;93532.97;5052984;28;20126;-78
2023/01/17 10:44:55;;;;;;;11.40;1.90;;;;;;;8.07;46.58;93534.16;5055719;28;20686;-77
2023/01/17 10:47:24;;;;;;;4.63;1.13;;;;;;;8.00;46.04;93539.50;5052416;28;20057;-78
2023/01/17 10:49:53;;;;;;;5.47;1.25;;;;;;;7.66;45.05;93544.09;5054139;28;20045;-78
2023/01/17 10:52:30;;;;;;;6.20;1.50;;;;;;;7.53;46.90;93541.63;5054065;28;20057;-79
2023/01/17 10:55:15;;;;;;;7.00;1.42;;;;;;;8.04;46.08;93553.88;5054260;28;20456;-79
2023/01/17 10:57:44;;;;;;;7.22;1.70;;;;;;;8.11;44.56;93540.41;5050554;28;20060;-79
2023/01/17 11:00:42;;;;;;;10.18;2.28;;;;;;;8.06;46.21;93533.38;5054445;28;20444;-80
2023/01/17 11:03:10;;;;;;;7.13;1.60;;;;;;;8.39;45.08;93526.38;5054282;28;20049;-79
2023/01/17 11:05:37;;;;;;;7.45;1.65;;;;;;;8.14;42.98;93525.31;5053196;28;20045;-79
2023/01/17 11:08:06;;;;;;;9.18;2.10;;;;;;;7.98;43.38;93523.59;5052193;28;20063;-81
2023/01/17 11:10:39;;;;;;;9.88;1.70;;;;;;;7.62;44.75;93521.59;5052057;28;20412;-80
2023/01/17 11:13:17;;;;;;;7.47;1.60;;;;;;;7.34;46.39;93509.25;5051398;28;20045;-81
2023/01/17 11:15:48;;;;;;;6.57;1.35;;;;;;;6.88;46.66;93495.84;5051820;28;20496;-79
2023/01/17 11:18:16;;;;;;;13.63;2.63;;;;;;;6.48;48.35;93485.59;5051165;28;20048;-80
2023/01/17 11:20:43;;;;;;;7.18;1.55;;;;;;;5.88;48.09;93483.38;5052016;28;20072;-79
2023/01/17 11:23:15;;;;;;;11.10;2.50;;;;;;;5.76;48.78;93459.22;5050232;28;20420;-80
2023/01/17 11:25:50;;;;;;;9.73;2.20;;;;;;;5.79;50.07;93466.59;5051392;28;20037;-80
2023/01/17 11:28:24;;;;;;;11.10;2.33;;;;;;;5.73;50.55;93460.72;5049735;28;20045;-79
2023/01/17 11:30:53;;;;;;;8.73;1.77;;;;;;;5.82;50.16;93457.78;5051268;28;20061;-79
2023/01/17 11:33:33;;;;;;;9.55;2.20;;;;;;;5.71;51.00;93451.41;5053953;28;20073;-80
2023/01/17 11:36:00;;;;;;;6.45;1.75;;;;;;;5.55;51.96;93450.72;5054952;28;20052;-79
2023/01/17 11:38:27;;;;;;;8.68;1.92;;;;;;;5.51;52.27;93447.97;5053910;28;20048;-78
2023/01/17 11:41:18;;;;;;;5.38;1.42;;;;;;;5.49;51.56;93448.31;5055199;28;20041;-80
2023/01/17 11:43:50;;;;;;;7.20;1.85;;;;;;;5.43;51.91;93448.97;5048378;28;20052;-79
2023/01/17 11:46:19;;;;;;;8.75;2.30;;;;;;;5.49;52.47;93440.22;5062439;28;20048;-78
2023/01/17 11:48:49;;;;;;;6.13;1.33;;;;;;;5.24;52.35;93438.94;5060329;28;20040;-80
2023/01/17 11:51:24;;;;;;;9.23;2.20;;;;;;;5.17;53.24;93438.81;5054728;28;20056;-79
2023/01/17 11:53:54;;;;;;;6.93;1.90;;;;;;;5.09;54.54;93437.09;5053849;28;20048;-80
2023/01/17 11:56:31;;;;;;;8.93;1.83;;;;;;;5.18;53.43;93441.16;5053380;28;20041;-80
2023/01/17 11:59:22;;;;;;;8.05;1.88;;;;;;;5.22;54.23;93438.53;5053743;28;20048;-79
2023/01/17 12:02:00;;;;;;;7.38;1.70;;;;;;;5.23;53.91;93432.00;5049171;28;20408;-80
2023/01/17 12:04:30;;;;;;;7.97;1.85;;;;;;;5.18;52.75;93421.50;5046016;28;20041;-80
2023/01/17 12:07:23;;;;;;;4.65;1.35;;;;;;;5.16;52.46;93415.66;5053603;28;20041;-79
2023/01/17 12:10:00;;;;;;;7.30;1.80;;;;;;;5.20;52.92;93411.13;5049540;28;20037;-79
2023/01/17 12:15:34;;;;;;;8.80;2.08;;;;;;;5.08;53.57;93405.88;5065233;28;20055;-78
2023/01/17 12:18:16;;;;;;;7.13;1.88;;;;;;;4.98;53.78;93399.91;5056893;28;20048;-79
2023/01/17 12:20:50;;;;;;;7.47;1.92;;;;;;;4.87;54.46;93393.50;5053741;28;20503;-80
2023/01/17 12:23:52;;;;;;;14.50;2.95;;;;;;;4.81;55.36;93386.84;5054032;28;20131;-79
2023/01/17 12:26:32;;;;;;;10.75;2.45;;;;;;;4.77;55.61;93391.38;5040675;28;20423;-79
2023/01/17 12:29:21;;;;;;;8.32;1.75;;;;;;;4.82;54.75;93384.94;5052787;28;20120;-79
2023/01/17 12:32:00;;;;;;;12.85;2.55;;;;;;;4.85;55.57;93384.97;5032268;28;20488;-79
2023/01/17 12:34:30;;;;;;;12.65;2.05;;;;;;;4.90;55.40;93375.84;5053010;28;20037;-80
2023/01/17 12:37:00;;;;;;;10.68;2.10;;;;;;;4.88;55.19;93365.41;5061085;28;20048;-80
2023/01/17 12:39:33;;;;;;;8.05;1.85;;;;;;;4.78;54.40;93359.81;5044625;28;20037;-78
2023/01/17 12:42:04;;;;;;;6.15;1.58;;;;;;;4.73;54.83;93350.09;5051919;28;20045;-79
2023/01/17 12:44:44;;;;;;;8.05;1.88;;;;;;;4.77;55.54;93342.84;5053394;28;20045;-79
2023/01/17 12:47:14;;;;;;;17.38;3.00;;;;;;;4.72;56.14;93338.53;5051972;28;20055;-79
2023/01/17 12:49:46;;;;;;;8.25;1.88;;;;;;;4.62;56.49;93336.38;5052073;28;20045;-80
2023/01/17 12:52:21;;;;;;;12.32;3.05;;;;;;;4.50;57.44;93330.34;5050958;28;20052;-79
2023/01/17 12:54:53;;;;;;;10.10;2.47;;;;;;;4.64;56.02;93325.25;5053360;28;20040;-81
2023/01/17 12:57:23;;;;;;;8.82;2.33;;;;;;;4.64;56.38;93315.25;5051467;28;20052;-79
2023/01/17 12:59:58;;;;;;;8.18;2.15;;;;;;;4.68;56.21;93308.00;5052491;28;20037;-79
2023/01/17 13:02:32;;;;;;;8.05;1.60;;;;;;;4.74;56.55;93305.81;5051944;28;20045;-80
2023/01/17 13:05:06;;;;;;;7.03;2.10;;;;;;;4.73;56.62;93304.25;5053062;28;20052;-78
2023/01/17 13:07:42;;;;;;;18.08;3.25;;;;;;;4.67;55.51;93294.91;5044900;28;20045;-79
2023/01/17 13:10:24;;;;;;;12.75;2.33;;;;;;;4.64;55.95;93290.97;5051874;28;20071;-81
2023/01/17 13:12:51;;;;;;;10.80;2.03;;;;;;;4.71;55.24;93284.97;5052180;28;20045;-79
2023/01/17 13:15:25;;;;;;;12.43;2.45;;;;;;;4.66;55.35;93285.25;5051845;28;20048;-78
2023/01/17 13:17:59;;;;;;;7.90;2.00;;;;;;;4.67;55.31;93281.44;5052816;28;20041;-80